Portada
METAR-TAF:

METAR-TAF

Aeropuertos :

Soldotna, Alaska, Estados Unidos

latitud: 60-29N, longitud: 151-02W, altitud: 33 m

Observación

El informe se hizo hace 22 minutos, a las 05:56 UTC
Viento 5 kt del este
Temperatura 11°C
Humedad 54%
Presión 1018 hPa
Visibilidad: 16.1 km
Cielo nuboso a una altura de 10000 ft

METAR: PASX 300556Z AUTO 09005KT 10SM BKN100 11/02 A3005 RMK AO2 SLP181 T01110022 10139 20111 53009

Hora: 22:18 (06:18 UTC)


TAF: falta

Observaciones y pronósticos meteorológicos de más de 4000 aeropuertos (mensajes METAR y TAF).

Los puntos amarillos y rojos representan las estaciones disponibles.

Ponga el ratón en el punto deseado para ver el nombre de la estación.

Haga clic para ver las observaciones y los pronósticos meteorológicos.

Para cambiar el mapa : haga clic en los botones verdes con una cruz de color negro para hacer un zoom, en el botón verde con un guión para alejar o en las flechas verdes para mapas adyacentes.


METAR-TAF: